Terminal Aerodrome Forecast
Issued by NWS

Home | Current Version | Previous Version | Text Only | Print | Product List | Glossary On
Versions: 1 2 3 4 5 6 7 8 9 10 11 12 13 14 15 16 17 18 19 20 21
000
FTUS46 KLOX 291500 AAC
TAFLGB
TAF AMD
KLGB 291552Z 2916/3012 00000KT 6SM HZ SCT008 BKN250
     FM291900 20007KT P6SM BKN250
     FM292300 29008KT P6SM SCT250
     FM300200 VRB05KT P6SM SCT250
     FM301000 VRB05KT 2SM BR BKN002=

USA.gov is the U.S. government's official web portal to all federal, state and local government web resources and services.